createdAt,value
2019-05-21T13:17:00.598Z,99.90
2019-05-21T13:19:33.054Z,99.90
2019-05-21T13:22:05.438Z,99.90
2019-05-21T13:24:37.909Z,99.90
2019-05-21T13:27:10.500Z,99.90
2019-05-21T13:29:42.874Z,99.90
2019-05-21T13:32:15.720Z,99.90
2019-05-21T13:34:48.157Z,99.90
2019-05-21T13:37:20.731Z,99.90
2019-05-21T13:39:53.154Z,99.90
2019-05-21T13:42:25.505Z,99.90
2019-05-21T13:44:57.857Z,99.90
2019-05-21T13:47:30.314Z,99.90
2019-05-21T13:50:02.971Z,99.90
2019-05-21T13:52:35.577Z,99.90
2019-05-21T13:55:10.998Z,99.90
2019-05-21T13:57:43.653Z,99.90
2019-05-21T14:00:17.821Z,99.90
2019-05-21T14:02:50.916Z,99.90
2019-05-21T14:05:24.163Z,99.90
2019-05-21T14:07:56.720Z,99.90
2019-05-21T14:10:29.058Z,99.90
2019-05-21T14:13:01.486Z,99.90
2019-05-21T14:15:34.095Z,99.90
2019-05-21T14:18:07.074Z,99.90
2019-05-21T14:20:40.155Z,99.90
2019-05-21T14:23:12.807Z,99.90
2019-05-21T14:25:45.313Z,99.90
2019-05-21T14:28:18.068Z,99.90
2019-05-21T14:30:50.485Z,99.90
2019-05-21T14:33:22.950Z,99.90
2019-05-21T14:35:55.298Z,99.90
2019-05-21T14:38:28.054Z,99.90
2019-05-21T14:41:00.409Z,99.90
2019-05-21T14:43:32.943Z,99.90
2019-05-21T14:46:05.366Z,99.90
2019-05-21T14:48:38.003Z,99.90
2019-05-21T14:51:13.427Z,99.90
2019-05-21T14:53:44.385Z,99.90
2019-05-21T14:56:16.860Z,99.90
2019-05-21T14:58:49.400Z,99.90
2019-05-21T15:01:21.835Z,99.90
2019-05-21T15:03:54.333Z,99.90
2019-05-21T15:06:27.383Z,99.90
2019-05-21T15:08:59.984Z,99.90
2019-05-21T15:11:32.341Z,99.90
2019-05-21T15:14:04.757Z,99.90
2019-05-21T15:16:37.282Z,99.90
2019-05-21T15:19:10.397Z,99.90
2019-05-21T15:21:44.291Z,99.90
2019-05-21T15:24:16.913Z,99.90
2019-05-21T15:26:49.468Z,99.90
2019-05-21T15:29:21.867Z,99.90
2019-05-21T15:31:54.286Z,99.90
2019-05-21T15:34:26.784Z,99.90
2019-05-21T15:36:59.129Z,99.90
2019-05-21T15:39:31.531Z,99.90
2019-05-21T15:42:03.947Z,99.90
2019-05-21T15:44:36.337Z,99.90
2019-05-21T15:47:09.030Z,99.90
2019-05-21T15:49:41.390Z,99.90
2019-05-21T15:52:13.983Z,99.90
2019-05-21T15:54:46.345Z,99.90
2019-05-21T15:57:18.785Z,99.90
2019-05-21T15:59:51.200Z,99.90
2019-05-21T16:02:23.904Z,99.90
2019-05-21T16:04:56.139Z,99.90
2019-05-21T16:07:29.615Z,99.90
2019-05-21T16:10:01.995Z,99.90
2019-05-21T16:12:34.224Z,99.90
2019-05-21T16:15:10.999Z,99.90
2019-05-21T16:17:43.832Z,99.90
2019-05-21T16:20:18.369Z,99.90
2019-05-21T16:22:50.896Z,99.90
2019-05-21T16:25:23.621Z,99.90
2019-05-21T16:27:56.156Z,99.90
2019-05-21T16:30:28.542Z,99.90
2019-05-21T16:33:00.902Z,99.90
2019-05-21T16:35:34.462Z,99.90
2019-05-21T16:38:06.862Z,99.90
2019-05-21T16:40:39.720Z,99.90
2019-05-21T16:43:12.069Z,99.90
2019-05-21T16:45:44.458Z,99.90
2019-05-21T16:48:17.086Z,99.90
2019-05-21T16:50:49.221Z,99.90
2019-05-21T16:53:22.381Z,99.90
2019-05-21T16:55:55.188Z,99.90
2019-05-21T16:58:27.573Z,99.90
2019-05-21T17:01:00.389Z,99.90
2019-05-21T17:03:32.763Z,99.90
2019-05-21T17:06:05.335Z,99.90
2019-05-21T17:08:37.712Z,99.90
2019-05-21T17:11:10.085Z,99.90
2019-05-21T17:13:42.455Z,99.90
2019-05-21T17:16:14.798Z,99.90
2019-05-21T17:18:47.199Z,99.90
2019-05-21T17:21:19.922Z,99.90
2019-05-21T17:23:52.587Z,99.90
2019-05-21T18:20:01.344Z,99.90
2019-05-21T18:22:35.163Z,99.90
2019-05-21T18:25:08.789Z,99.90
2019-05-21T18:27:41.268Z,99.90
2019-05-21T18:30:14.350Z,99.90
2019-05-21T18:32:47.536Z,99.90
2019-05-21T18:35:20.114Z,99.90
2019-05-21T18:37:53.270Z,99.90
2019-05-21T18:40:25.773Z,99.90
2019-05-21T18:42:58.129Z,99.90
2019-05-21T18:45:30.466Z,99.90
2019-05-21T18:48:03.022Z,99.90
2019-05-21T18:50:36.941Z,99.90
2019-05-21T18:53:10.426Z,99.90
2019-05-21T18:55:42.746Z,99.90
2019-05-21T18:58:17.195Z,99.90
2019-05-21T19:00:49.466Z,99.90
2019-05-21T19:03:25.787Z,99.90
2019-05-21T19:05:56.118Z,99.90
2019-05-21T19:08:28.548Z,99.90
2019-05-21T19:11:01.687Z,99.90
2019-05-21T19:13:34.525Z,99.90
2019-05-21T19:16:08.269Z,99.90
2019-05-21T19:18:41.484Z,99.90
2019-05-21T19:21:15.947Z,99.90
2019-05-21T19:23:48.994Z,99.90
2019-05-21T19:26:21.573Z,99.90
2019-05-21T19:28:54.327Z,99.90
2019-05-21T19:31:26.767Z,99.90
2019-05-21T19:33:59.423Z,99.90
2019-05-21T19:36:32.081Z,99.90
2019-05-21T19:39:05.657Z,99.90
2019-05-21T19:41:38.351Z,99.90
2019-05-21T19:44:10.674Z,99.90
2019-05-21T19:46:43.362Z,99.90
2019-05-21T19:49:15.907Z,99.90
2019-05-21T19:51:49.562Z,99.90
2019-05-21T19:54:22.492Z,99.90
2019-05-21T19:56:55.875Z,99.90
2019-05-21T19:59:28.410Z,99.90
2019-05-21T20:02:00.989Z,99.90
2019-05-21T20:04:33.889Z,99.90
2019-05-21T20:07:08.524Z,99.90
2019-05-21T20:09:42.710Z,99.90
2019-05-21T20:12:15.719Z,99.90
2019-05-21T20:14:48.546Z,99.90
2019-05-21T20:17:21.518Z,99.60
2019-05-21T20:19:54.793Z,98.30
2019-05-21T20:22:28.328Z,99.90
2019-05-21T20:25:00.691Z,99.90
2019-05-21T20:27:33.476Z,99.90
2019-05-21T20:30:12.858Z,99.90
2019-05-21T20:32:43.571Z,99.90
2019-05-21T20:35:17.689Z,99.90
2019-05-21T20:37:51.048Z,99.90
2019-05-21T20:40:24.289Z,99.90
2019-05-21T20:42:57.063Z,99.90
2019-05-21T20:45:30.910Z,99.90
2019-05-21T20:48:04.571Z,99.90
2019-05-21T20:50:37.426Z,99.90
2019-05-21T20:53:10.544Z,99.90
2019-05-21T20:55:43.109Z,99.90
2019-05-21T20:58:15.581Z,99.90
2019-05-21T21:00:55.000Z,99.90
2019-05-21T21:03:28.042Z,99.90
2019-05-21T21:06:01.678Z,99.90
2019-05-21T21:08:35.143Z,99.90
2019-05-21T21:11:08.931Z,99.90
2019-05-21T21:13:42.125Z,99.90
2019-05-21T21:16:14.712Z,99.90
2019-05-21T21:18:48.404Z,95.50
2019-05-21T21:21:20.973Z,72.60
2019-05-21T21:23:56.500Z,62.90
2019-05-21T21:26:29.001Z,81.50
2019-05-21T21:29:01.739Z,75.90
2019-05-21T21:31:34.511Z,60.10
2019-05-21T21:34:07.164Z,67.00
2019-05-21T21:36:39.481Z,77.10
2019-05-21T21:39:13.226Z,75.70
2019-05-21T21:41:45.710Z,76.50
2019-05-21T21:44:33.169Z,91.60
2019-05-21T21:46:52.680Z,81.20
2019-05-21T21:49:26.451Z,98.00
2019-05-21T21:52:00.103Z,99.90
2019-05-21T21:54:33.000Z,99.90
2019-05-21T21:57:05.942Z,82.20
2019-05-21T21:59:38.694Z,79.70
2019-05-21T22:02:13.699Z,99.10
2019-05-21T22:04:47.539Z,99.90
2019-05-21T22:07:20.669Z,99.90
2019-05-21T22:09:53.046Z,99.90
2019-05-21T22:12:25.782Z,97.70
2019-05-21T22:14:59.918Z,99.60
2019-05-21T22:17:32.345Z,99.90
2019-05-21T22:20:06.193Z,99.90
2019-05-21T22:22:39.228Z,99.90
2019-05-21T22:25:12.353Z,99.90
2019-05-21T22:27:44.716Z,99.90
2019-05-21T22:30:17.632Z,99.90
2019-05-21T22:32:50.600Z,99.90
2019-05-21T22:35:23.446Z,99.90
2019-05-21T22:37:55.853Z,99.90
2019-05-21T22:40:28.777Z,99.90
2019-05-21T22:43:01.596Z,99.90
2019-05-21T22:45:34.005Z,99.90
2019-05-21T22:48:07.099Z,99.90
2019-05-21T22:50:39.750Z,99.90
2019-05-21T22:53:12.502Z,99.90
2019-05-21T22:55:45.169Z,99.90
2019-05-21T22:58:18.187Z,99.90
2019-05-21T23:00:51.880Z,99.90
2019-05-21T23:03:25.341Z,99.90
2019-05-21T23:05:58.148Z,99.90
2019-05-21T23:08:30.522Z,99.90
2019-05-21T23:11:03.260Z,99.90
2019-05-21T23:13:36.611Z,99.90
2019-05-21T23:16:10.016Z,99.90
2019-05-21T23:19:00.785Z,99.90
2019-05-21T23:21:53.822Z,99.90
2019-05-21T23:24:26.829Z,91.40
2019-05-21T23:27:00.490Z,78.40
2019-05-21T23:29:33.077Z,79.30
2019-05-21T23:32:06.711Z,98.40
2019-05-21T23:34:40.613Z,99.90
2019-05-21T23:37:17.487Z,99.90
2019-05-21T23:39:52.817Z,99.90
2019-05-21T23:42:30.211Z,99.90
2019-05-21T23:44:59.921Z,99.90
2019-05-21T23:47:32.230Z,99.90
2019-05-21T23:50:05.799Z,99.90
2019-05-21T23:52:38.918Z,99.90
2019-05-21T23:55:12.546Z,99.90
2019-05-21T23:57:45.909Z,99.90
